createdAt,value
2019-03-16T00:01:57.193Z,6.09
2019-03-16T00:06:56.996Z,6.01
2019-03-16T00:09:27.036Z,6.03
2019-03-16T00:11:57.185Z,6.07
2019-03-16T00:14:27.128Z,6.03
2019-03-16T00:16:57.164Z,6.03
2019-03-16T00:19:27.552Z,6.05
2019-03-16T00:21:57.590Z,6.01
2019-03-16T00:24:27.642Z,5.95
2019-03-16T00:26:57.690Z,5.87
2019-03-16T00:29:27.721Z,6.06
2019-03-16T00:31:58.073Z,6.00
2019-03-16T00:34:28.085Z,5.89
2019-03-16T00:36:58.153Z,5.86
2019-03-16T00:39:28.191Z,5.86
2019-03-16T00:44:38.164Z,5.90
2019-03-16T00:47:08.205Z,6.09
2019-03-16T00:49:38.237Z,6.07
2019-03-16T00:52:08.286Z,5.98
2019-03-16T00:54:38.436Z,6.13
2019-03-16T00:57:08.588Z,6.03
2019-03-16T00:59:38.633Z,5.95
2019-03-16T01:02:08.685Z,5.88
2019-03-16T01:04:38.713Z,5.81
2019-03-16T01:07:08.750Z,5.89
2019-03-16T01:09:39.162Z,5.91
2019-03-16T01:12:09.212Z,5.91
2019-03-16T01:14:39.565Z,5.97
2019-03-16T01:17:09.604Z,5.79
2019-03-16T01:19:39.646Z,5.72
2019-03-16T01:22:09.678Z,5.83
2019-03-16T01:27:19.798Z,5.81
2019-03-16T01:29:49.824Z,5.82
2019-03-16T01:32:19.858Z,5.98
2019-03-16T01:34:49.894Z,5.83
2019-03-16T01:37:19.925Z,5.83
2019-03-16T01:39:50.256Z,5.79
2019-03-16T01:42:20.698Z,5.83
2019-03-16T01:44:50.756Z,6.00
2019-03-16T01:47:20.805Z,6.02
2019-03-16T01:49:50.848Z,6.01
2019-03-16T01:52:21.140Z,6.03
2019-03-16T01:54:51.187Z,5.87
2019-03-16T01:57:21.239Z,5.97
2019-03-16T01:59:51.291Z,5.94
2019-03-16T02:02:21.311Z,5.97
2019-03-16T02:04:51.745Z,5.96
2019-03-16T02:07:21.781Z,6.00
2019-03-16T02:09:51.831Z,6.06
2019-03-16T02:12:21.867Z,6.10
2019-03-16T02:14:52.205Z,6.06
2019-03-16T02:17:22.238Z,6.01
2019-03-16T02:19:52.549Z,6.12
2019-03-16T02:22:22.660Z,6.18
2019-03-16T02:24:52.723Z,6.08
2019-03-16T02:27:23.125Z,6.14
2019-03-16T02:29:53.174Z,6.07
2019-03-16T02:32:23.229Z,6.00
2019-03-16T02:34:53.277Z,6.01
2019-03-16T02:37:23.324Z,6.06
2019-03-16T02:39:53.341Z,6.00
2019-03-16T02:42:23.410Z,6.05
2019-03-16T02:44:53.539Z,6.06
2019-03-16T02:47:23.569Z,6.00
2019-03-16T02:49:53.965Z,5.95
2019-03-16T02:52:24.009Z,5.77
2019-03-16T02:54:54.065Z,5.89
2019-03-16T02:57:24.412Z,5.98
2019-03-16T02:59:54.474Z,6.02
2019-03-16T03:02:24.861Z,5.87
2019-03-16T03:04:54.904Z,6.00
2019-03-16T03:07:24.948Z,5.89
2019-03-16T03:09:54.989Z,5.83
2019-03-16T03:12:25.336Z,5.86
2019-03-16T03:14:55.381Z,5.90
2019-03-16T03:17:25.774Z,5.94
2019-03-16T03:19:55.822Z,5.97
2019-03-16T03:22:26.097Z,5.95
2019-03-16T03:24:56.162Z,5.99
2019-03-16T03:27:26.205Z,5.97
2019-03-16T03:29:57.511Z,5.88
2019-03-16T03:32:26.799Z,6.03
2019-03-16T03:34:56.836Z,5.94
2019-03-16T03:37:26.886Z,5.93
2019-03-16T03:39:56.918Z,5.81
2019-03-16T03:42:26.945Z,5.86
2019-03-16T03:44:56.999Z,5.71
2019-03-16T03:52:48.518Z,5.76
2019-03-16T03:55:18.565Z,5.76
2019-03-16T03:57:48.598Z,5.82
2019-03-16T04:00:18.672Z,5.75
2019-03-16T04:05:28.038Z,5.86
2019-03-16T04:07:58.070Z,5.84
2019-03-16T04:10:28.448Z,5.94
2019-03-16T04:15:38.144Z,5.64
2019-03-16T04:18:08.279Z,5.64
2019-03-16T04:20:38.548Z,5.75
2019-03-16T04:23:08.612Z,5.63
2019-03-16T04:25:38.650Z,5.63
2019-03-16T04:28:08.692Z,5.68
2019-03-16T04:30:38.730Z,5.55
2019-03-16T04:35:48.142Z,5.65
2019-03-16T04:38:18.165Z,5.65
2019-03-16T04:43:27.568Z,5.68
2019-03-16T04:45:57.941Z,5.64
2019-03-16T04:48:28.246Z,5.51
2019-03-16T04:50:58.285Z,5.49
2019-03-16T04:53:28.619Z,5.43
2019-03-16T04:55:59.033Z,5.41
2019-03-16T04:58:29.063Z,5.30
2019-03-16T05:00:59.104Z,5.31
2019-03-16T05:03:29.150Z,5.32
2019-03-16T05:05:59.185Z,5.35
2019-03-16T05:08:29.217Z,5.43
2019-03-16T05:10:59.268Z,5.37
2019-03-16T05:13:29.302Z,5.35
2019-03-16T05:15:59.332Z,5.55
2019-03-16T05:18:29.387Z,5.32
2019-03-16T05:20:59.423Z,5.43
2019-03-16T05:23:29.827Z,5.47
2019-03-16T05:25:59.858Z,5.39
2019-03-16T05:28:30.149Z,5.32
2019-03-16T05:31:00.187Z,5.27
2019-03-16T05:38:48.972Z,5.28
2019-03-16T05:41:18.982Z,5.24
2019-03-16T05:43:49.023Z,5.27
2019-03-16T05:46:19.415Z,5.09
2019-03-16T05:51:28.814Z,5.10
2019-03-16T05:56:38.217Z,4.99
2019-03-16T05:59:08.253Z,4.99
2019-03-16T06:01:38.312Z,4.97
2019-03-16T06:04:08.674Z,4.88
2019-03-16T06:06:38.791Z,4.96
2019-03-16T06:09:08.755Z,4.83
2019-03-16T06:11:38.782Z,4.95
2019-03-16T06:14:08.869Z,4.99
2019-03-16T06:16:39.150Z,5.02
2019-03-16T06:19:09.169Z,5.16
2019-03-16T06:21:39.219Z,4.95
2019-03-16T06:24:09.256Z,4.97
2019-03-16T06:26:39.303Z,5.10
2019-03-16T06:29:09.316Z,5.15
2019-03-16T06:31:39.373Z,5.06
2019-03-16T06:34:09.390Z,5.02
2019-03-16T06:36:39.416Z,4.99
2019-03-16T06:41:49.176Z,5.04
2019-03-16T06:44:19.204Z,5.04
2019-03-16T06:46:49.258Z,5.03
2019-03-16T06:49:19.616Z,5.17
2019-03-16T06:57:08.715Z,5.13
2019-03-16T06:59:39.105Z,4.99
2019-03-16T07:02:09.138Z,4.99
2019-03-16T07:04:39.564Z,5.02
2019-03-16T07:07:09.605Z,5.13
2019-03-16T07:09:39.981Z,5.09
2019-03-16T07:12:10.021Z,5.09
2019-03-16T07:14:40.050Z,5.08
2019-03-16T07:17:10.425Z,5.06
2019-03-16T07:19:40.756Z,5.16
2019-03-16T07:24:51.708Z,5.18
2019-03-16T07:27:26.095Z,5.12
2019-03-16T07:29:50.572Z,5.14
2019-03-16T07:32:20.899Z,5.14
2019-03-16T07:34:50.923Z,5.18
2019-03-16T07:37:20.949Z,5.18
2019-03-16T07:39:50.966Z,5.43
2019-03-16T07:42:21.020Z,5.40
2019-03-16T07:44:51.361Z,5.40
2019-03-16T07:47:21.398Z,5.41
2019-03-16T07:49:51.484Z,5.46
2019-03-16T07:52:21.465Z,5.45
2019-03-16T07:54:51.493Z,5.45
2019-03-16T07:57:21.529Z,5.49
2019-03-16T07:59:51.569Z,5.60
2019-03-16T08:02:21.614Z,5.64
2019-03-16T08:04:51.891Z,5.64
2019-03-16T08:07:21.922Z,5.61
2019-03-16T08:09:51.950Z,5.64
2019-03-16T08:12:21.989Z,5.64
2019-03-16T08:14:52.013Z,5.78
2019-03-16T08:17:22.062Z,5.69
2019-03-16T08:19:52.094Z,5.72
2019-03-16T08:22:22.115Z,5.69
2019-03-16T08:24:52.431Z,5.80
2019-03-16T08:27:22.463Z,5.84
2019-03-16T08:29:52.768Z,5.84
2019-03-16T08:32:25.335Z,5.98
2019-03-16T08:34:52.829Z,5.93
2019-03-16T08:37:23.209Z,5.82
2019-03-16T08:39:53.240Z,5.97
2019-03-16T08:42:23.290Z,5.90
2019-03-16T08:44:53.307Z,5.90
2019-03-16T08:47:23.333Z,6.04
2019-03-16T08:49:53.364Z,6.01
2019-03-16T08:55:03.071Z,6.08
2019-03-16T08:57:33.107Z,6.02
2019-03-16T09:00:03.182Z,5.93
2019-03-16T09:02:33.196Z,5.93
2019-03-16T09:05:03.528Z,6.06
2019-03-16T09:07:33.569Z,6.07
2019-03-16T09:10:03.603Z,6.01
2019-03-16T09:12:33.630Z,5.98
2019-03-16T09:15:03.659Z,6.05
2019-03-16T09:17:33.712Z,5.98
2019-03-16T09:20:03.732Z,5.94
2019-03-16T09:22:34.038Z,5.92
2019-03-16T09:25:04.074Z,6.00
2019-03-16T09:27:34.108Z,6.05
2019-03-16T09:30:04.145Z,6.10
2019-03-16T09:32:34.169Z,6.03
2019-03-16T09:35:04.187Z,5.86
2019-03-16T09:37:34.222Z,5.91
2019-03-16T09:40:04.558Z,5.92
2019-03-16T09:42:34.897Z,6.07
2019-03-16T09:45:04.934Z,6.05
2019-03-16T09:47:34.967Z,6.08
2019-03-16T09:50:07.374Z,6.00
2019-03-16T09:52:35.759Z,6.12
2019-03-16T09:55:08.972Z,6.17
2019-03-16T09:57:39.268Z,6.14
2019-03-16T10:02:57.768Z,6.14
2019-03-16T10:05:27.940Z,6.31
2019-03-16T10:07:58.144Z,6.31
2019-03-16T10:10:28.075Z,6.25
2019-03-16T10:12:58.438Z,6.24
2019-03-16T10:15:28.620Z,6.29
2019-03-16T10:17:59.097Z,6.34
2019-03-16T10:20:29.097Z,6.31
2019-03-16T10:22:59.263Z,6.41
2019-03-16T10:25:29.453Z,6.52
2019-03-16T10:27:59.549Z,6.53
2019-03-16T10:30:29.926Z,6.62
2019-03-16T10:33:00.024Z,6.70
2019-03-16T10:35:30.085Z,6.82
2019-03-16T10:38:00.183Z,7.03
2019-03-16T10:40:30.556Z,7.17
2019-03-16T10:43:00.694Z,7.23
2019-03-16T10:45:30.782Z,7.39
2019-03-16T10:48:01.209Z,7.43
2019-03-16T10:50:31.136Z,7.34
2019-03-16T10:53:01.183Z,7.38
2019-03-16T10:55:31.418Z,7.47
2019-03-16T10:58:01.322Z,7.61
2019-03-16T11:00:31.338Z,7.59
2019-03-16T11:05:40.762Z,7.70
2019-03-16T11:08:10.859Z,7.82
2019-03-16T11:10:40.895Z,7.91
2019-03-16T11:13:10.954Z,8.04
2019-03-16T11:15:41.203Z,8.08
2019-03-16T11:18:11.226Z,8.25
2019-03-16T11:20:41.418Z,8.28
2019-03-16T11:25:50.861Z,8.50
2019-03-16T11:28:20.928Z,8.63
2019-03-16T11:30:51.332Z,8.79
2019-03-16T11:33:22.190Z,8.85
2019-03-16T11:35:52.049Z,8.94
2019-03-16T11:38:23.041Z,8.96
2019-03-16T11:43:33.636Z,9.21
2019-03-16T11:46:04.367Z,9.26
2019-03-16T11:48:34.570Z,9.36
2019-03-16T11:51:04.856Z,9.51
2019-03-16T11:56:18.360Z,9.61
2019-03-16T11:58:44.622Z,9.78
2019-03-16T12:01:14.649Z,9.90
2019-03-16T12:06:24.693Z,10.13
2019-03-16T12:08:55.033Z,10.21
2019-03-16T12:11:25.068Z,10.27
2019-03-16T12:13:55.469Z,10.36
2019-03-16T12:16:25.553Z,10.43
2019-03-16T12:18:55.922Z,10.35
2019-03-16T12:21:26.234Z,10.36
2019-03-16T12:23:56.289Z,10.40
2019-03-16T12:26:26.315Z,10.38
2019-03-16T12:28:56.369Z,10.22
2019-03-16T12:31:26.406Z,10.24
2019-03-16T12:33:56.667Z,10.38
2019-03-16T12:36:26.489Z,10.51
2019-03-16T12:38:56.523Z,10.59
2019-03-16T12:41:26.878Z,10.64
2019-03-16T12:43:56.920Z,10.71
2019-03-16T12:49:06.329Z,10.87
2019-03-16T12:51:36.385Z,10.83
2019-03-16T12:54:06.424Z,10.79
2019-03-16T12:56:36.486Z,10.74
2019-03-16T12:59:10.765Z,10.64
2019-03-16T13:04:16.302Z,10.52
2019-03-16T13:06:46.685Z,10.56
2019-03-16T13:09:16.734Z,10.51
2019-03-16T13:11:47.028Z,10.49
2019-03-16T13:14:17.081Z,10.58
2019-03-16T13:16:47.131Z,10.62
2019-03-16T13:19:17.471Z,10.70
2019-03-16T13:21:47.507Z,10.62
2019-03-16T13:24:17.548Z,10.52
2019-03-16T13:26:47.570Z,10.53
2019-03-16T13:29:17.632Z,10.48
2019-03-16T13:31:47.669Z,10.55
2019-03-16T13:34:17.720Z,10.60
2019-03-16T13:36:47.758Z,10.60
2019-03-16T13:39:17.802Z,10.63
2019-03-16T13:41:48.170Z,10.69
2019-03-16T13:44:18.204Z,10.71
2019-03-16T13:46:48.253Z,10.73
2019-03-16T13:49:18.589Z,10.71
2019-03-16T13:51:48.623Z,10.74
2019-03-16T13:54:18.673Z,10.71
2019-03-16T13:56:48.710Z,10.56
2019-03-16T13:59:18.758Z,10.47
2019-03-16T14:01:49.084Z,10.42
2019-03-16T14:04:19.422Z,10.34
2019-03-16T14:06:49.445Z,10.37
2019-03-16T14:09:19.487Z,10.34
2019-03-16T14:11:49.540Z,10.29
2019-03-16T14:14:19.875Z,10.21
2019-03-16T14:19:29.942Z,10.18
2019-03-16T14:21:59.983Z,10.12
2019-03-16T14:24:30.033Z,10.13
2019-03-16T14:27:00.400Z,10.16
2019-03-16T14:29:30.475Z,10.07
2019-03-16T14:32:00.498Z,10.15
2019-03-16T14:34:30.548Z,10.13
2019-03-16T14:37:00.570Z,10.12
2019-03-16T14:39:30.986Z,10.14
2019-03-16T14:42:01.014Z,10.10
2019-03-16T14:44:31.060Z,9.99
2019-03-16T14:47:01.444Z,9.95
2019-03-16T14:49:31.486Z,9.91
2019-03-16T14:52:01.512Z,9.86
2019-03-16T14:54:31.557Z,9.88
2019-03-16T14:57:02.127Z,9.91
2019-03-16T14:59:31.624Z,9.99
2019-03-16T15:02:01.645Z,9.88
2019-03-16T15:04:51.410Z,9.91
2019-03-16T15:07:21.734Z,9.94
2019-03-16T15:09:51.820Z,9.96
2019-03-16T15:12:21.868Z,9.89
2019-03-16T15:14:51.868Z,9.68
2019-03-16T15:17:21.961Z,9.70
2019-03-16T15:19:51.993Z,9.70
2019-03-16T15:22:22.336Z,9.83
2019-03-16T15:24:52.686Z,9.65
2019-03-16T15:27:23.130Z,9.73
2019-03-16T15:29:53.184Z,9.77
2019-03-16T15:32:23.228Z,9.82
2019-03-16T15:34:53.542Z,9.59
2019-03-16T15:37:23.867Z,9.52
2019-03-16T15:39:53.915Z,9.54
2019-03-16T15:42:23.952Z,9.65
2019-03-16T15:44:54.002Z,9.63
2019-03-16T15:50:03.156Z,9.71
2019-03-16T15:52:33.479Z,9.78
2019-03-16T15:57:43.145Z,9.81
2019-03-16T16:00:15.725Z,9.77
2019-03-16T16:02:45.776Z,9.69
2019-03-16T16:05:16.173Z,9.70
2019-03-16T16:07:46.214Z,9.77
2019-03-16T16:10:16.598Z,9.78
2019-03-16T16:12:46.617Z,9.59
2019-03-16T16:15:16.666Z,9.52
2019-03-16T16:17:46.696Z,9.54
2019-03-16T16:20:19.669Z,9.59
2019-03-16T16:22:49.688Z,9.51
2019-03-16T16:25:20.072Z,9.59
2019-03-16T16:27:50.100Z,9.57
2019-03-16T16:30:22.766Z,9.56
2019-03-16T16:35:32.184Z,9.55
2019-03-16T16:38:02.560Z,9.61
2019-03-16T16:40:32.611Z,9.57
2019-03-16T16:43:02.721Z,9.41
2019-03-16T16:45:32.745Z,9.42
2019-03-16T16:48:02.793Z,9.42
2019-03-16T16:50:32.835Z,9.44
2019-03-16T16:53:02.864Z,9.41
2019-03-16T16:55:33.270Z,9.43
2019-03-16T16:58:03.295Z,9.41
2019-03-16T17:00:33.354Z,9.38
2019-03-16T17:05:43.440Z,9.35
2019-03-16T17:08:12.850Z,9.32
2019-03-16T17:10:42.897Z,9.23
2019-03-16T17:13:12.935Z,9.18
2019-03-16T17:15:42.980Z,9.06
2019-03-16T17:18:13.481Z,9.26
2019-03-16T17:20:43.869Z,9.11
2019-03-16T17:23:13.898Z,9.05
2019-03-16T17:25:43.933Z,9.07
2019-03-16T17:28:13.962Z,8.89
2019-03-16T17:30:44.007Z,9.08
2019-03-16T17:33:14.382Z,8.87
2019-03-16T17:35:44.443Z,8.87
2019-03-16T17:38:14.505Z,8.90
2019-03-16T17:40:44.549Z,8.81
2019-03-16T17:43:14.566Z,8.78
2019-03-16T17:45:44.678Z,8.85
2019-03-16T17:48:14.724Z,8.86
2019-03-16T17:50:44.842Z,8.81
2019-03-16T17:53:15.187Z,8.88
2019-03-16T17:55:45.234Z,8.84
2019-03-16T17:58:15.264Z,8.75
2019-03-16T18:00:45.298Z,8.66
2019-03-16T18:03:15.331Z,8.63
2019-03-16T18:05:45.673Z,8.66
2019-03-16T18:08:15.983Z,8.65
2019-03-16T18:10:46.022Z,8.67
2019-03-16T18:13:16.342Z,8.57
2019-03-16T18:15:46.374Z,8.62
2019-03-16T18:18:16.418Z,8.65
2019-03-16T18:20:46.441Z,8.59
2019-03-16T18:23:16.467Z,8.50
2019-03-16T18:25:46.521Z,8.50
2019-03-16T18:28:16.552Z,8.41
2019-03-16T18:30:46.601Z,8.38
2019-03-16T18:35:56.351Z,8.39
2019-03-16T18:38:26.375Z,8.18
2019-03-16T18:40:56.413Z,8.28
2019-03-16T18:43:26.446Z,8.16
2019-03-16T18:45:56.486Z,8.31
2019-03-16T18:48:26.523Z,8.38
2019-03-16T18:50:56.571Z,8.40
2019-03-16T18:53:26.927Z,8.37
2019-03-16T18:55:57.237Z,8.35
2019-03-16T18:58:37.272Z,8.40
2019-03-16T19:00:57.294Z,8.16
2019-03-16T19:06:07.319Z,8.15
2019-03-16T19:11:16.711Z,8.00
2019-03-16T19:16:26.458Z,8.20
2019-03-16T19:18:56.478Z,8.13
2019-03-16T19:21:26.528Z,8.11
2019-03-16T19:23:56.912Z,7.99
2019-03-16T19:26:29.922Z,8.03
2019-03-16T19:28:57.248Z,7.96
2019-03-16T19:31:27.558Z,8.15
2019-03-16T19:33:57.624Z,8.04
2019-03-16T19:36:27.672Z,8.00
2019-03-16T19:38:57.707Z,8.12
2019-03-16T19:41:27.760Z,8.03
2019-03-16T19:43:57.785Z,8.03
2019-03-16T19:46:28.215Z,7.98
2019-03-16T19:48:58.264Z,8.06
2019-03-16T19:51:28.743Z,8.13
2019-03-16T19:53:58.767Z,8.04
2019-03-16T19:56:28.798Z,7.86
2019-03-16T19:59:00.800Z,7.85
2019-03-16T20:01:28.865Z,7.98
2019-03-16T20:03:58.886Z,8.03
2019-03-16T20:06:28.929Z,7.90
2019-03-16T20:08:58.960Z,7.95
2019-03-16T20:11:29.355Z,7.94
2019-03-16T20:13:59.396Z,7.97
2019-03-16T20:16:29.683Z,7.87
2019-03-16T20:18:59.744Z,7.78
2019-03-16T20:21:30.035Z,7.87
2019-03-16T20:24:00.360Z,7.83
2019-03-16T20:26:30.664Z,7.77
2019-03-16T20:29:00.686Z,7.74
2019-03-16T20:31:30.735Z,7.81
2019-03-16T20:36:40.335Z,7.72
2019-03-16T20:39:10.350Z,7.64
2019-03-16T20:41:40.695Z,7.48
2019-03-16T20:44:13.360Z,7.42
2019-03-16T20:46:43.479Z,7.30
2019-03-16T20:49:13.493Z,7.12
2019-03-16T20:51:43.851Z,7.18
2019-03-16T20:54:13.870Z,7.19
2019-03-16T20:56:43.924Z,7.17
2019-03-16T20:59:13.953Z,7.03
2019-03-16T21:01:44.424Z,6.87
2019-03-16T21:06:54.162Z,7.01
2019-03-16T21:09:24.223Z,7.04
2019-03-16T21:11:54.269Z,7.22
2019-03-16T21:14:24.314Z,6.96
2019-03-16T21:16:54.357Z,7.00
2019-03-16T21:19:24.428Z,6.98
2019-03-16T21:21:54.757Z,6.91
2019-03-16T21:24:24.829Z,7.00
2019-03-16T21:26:54.871Z,7.03
2019-03-16T21:29:26.396Z,7.00
2019-03-16T21:31:54.938Z,6.80
2019-03-16T21:34:24.969Z,6.87
2019-03-16T21:36:55.030Z,6.78
2019-03-16T21:39:25.384Z,6.81
2019-03-16T21:41:55.406Z,6.82
2019-03-16T21:44:25.437Z,6.77
2019-03-16T21:46:55.490Z,6.73
2019-03-16T21:49:25.531Z,6.97
2019-03-16T21:51:55.881Z,6.92
2019-03-16T21:54:25.899Z,6.71
2019-03-16T21:56:56.226Z,6.76
2019-03-16T21:59:26.619Z,6.73
2019-03-16T22:04:35.676Z,6.60
2019-03-16T22:07:06.018Z,6.73
2019-03-16T22:09:36.436Z,6.91
2019-03-16T22:12:06.495Z,6.87
2019-03-16T22:14:36.548Z,6.82
2019-03-16T22:17:06.613Z,6.83
2019-03-16T22:19:36.612Z,6.77
2019-03-16T22:22:07.002Z,6.86
2019-03-16T22:24:37.025Z,6.92
2019-03-16T22:27:07.079Z,6.90
2019-03-16T22:29:37.118Z,6.99
2019-03-16T22:32:07.483Z,6.93
2019-03-16T22:34:37.537Z,6.76
2019-03-16T22:37:07.919Z,6.71
2019-03-16T22:39:38.246Z,6.96
2019-03-16T22:42:08.299Z,6.84
2019-03-16T22:44:38.677Z,6.79
2019-03-16T22:47:08.707Z,6.90
2019-03-16T22:49:38.739Z,6.91
2019-03-16T22:52:08.784Z,6.98
2019-03-16T22:54:38.800Z,6.92
2019-03-16T22:57:08.820Z,7.06
2019-03-16T23:02:18.201Z,7.08
2019-03-16T23:04:48.235Z,7.07
2019-03-16T23:07:18.256Z,6.88
2019-03-16T23:09:48.565Z,6.88
2019-03-16T23:12:18.623Z,6.95
2019-03-16T23:14:48.653Z,6.99
2019-03-16T23:17:18.669Z,6.96
2019-03-16T23:19:48.720Z,6.96
2019-03-16T23:22:18.750Z,6.86
2019-03-16T23:24:48.802Z,7.12
2019-03-16T23:27:18.833Z,7.04
2019-03-16T23:29:48.894Z,6.97
2019-03-16T23:34:58.284Z,7.07
2019-03-16T23:37:28.297Z,6.98
2019-03-16T23:39:58.365Z,6.87
2019-03-16T23:42:28.694Z,6.95
2019-03-16T23:44:58.746Z,6.87
2019-03-16T23:47:29.141Z,6.85
2019-03-16T23:49:59.179Z,7.01
2019-03-16T23:52:29.210Z,6.85
2019-03-16T23:54:59.278Z,7.01
2019-03-16T23:57:29.292Z,6.93
2019-03-16T23:59:59.329Z,6.79
